createdAt,value
2019-06-08T00:02:16.537Z,16.79
2019-06-08T00:04:46.181Z,16.82
2019-06-08T00:07:16.614Z,16.84
2019-06-08T00:09:46.129Z,16.79
2019-06-08T00:12:16.866Z,16.76
2019-06-08T00:14:46.406Z,16.82
2019-06-08T00:17:31.496Z,16.87
2019-06-08T00:19:47.187Z,16.78
2019-06-08T00:22:17.671Z,16.94
2019-06-08T00:24:47.191Z,16.76
2019-06-08T00:27:19.767Z,16.75
2019-06-08T00:29:47.919Z,16.62
2019-06-08T00:32:18.473Z,16.60
2019-06-08T00:34:47.989Z,16.69
2019-06-08T00:37:18.542Z,16.59
2019-06-08T00:39:48.320Z,16.56
2019-06-08T00:42:19.191Z,16.60
2019-06-08T00:44:48.799Z,16.51
2019-06-08T00:47:18.541Z,16.60
2019-06-08T00:49:47.988Z,16.57
2019-06-08T00:52:17.477Z,16.52
2019-06-08T00:54:47.014Z,16.50
2019-06-08T00:57:17.658Z,16.53
2019-06-08T00:59:47.267Z,16.40
2019-06-08T01:02:16.759Z,16.37
2019-06-08T01:04:46.239Z,16.37
2019-06-08T01:07:15.735Z,16.33
2019-06-08T01:09:45.209Z,16.32
2019-06-08T01:12:14.791Z,16.43
2019-06-08T01:14:44.271Z,16.28
2019-06-08T01:17:13.850Z,16.26
2019-06-08T01:19:43.393Z,16.23
2019-06-08T01:22:12.875Z,16.17
2019-06-08T01:24:42.746Z,16.07
2019-06-08T01:27:12.380Z,16.05
2019-06-08T01:29:41.989Z,16.06
2019-06-08T01:32:11.472Z,16.02
2019-06-08T01:34:40.978Z,15.98
2019-06-08T01:37:10.540Z,15.96
2019-06-08T01:39:40.038Z,15.94
2019-06-08T01:42:09.525Z,15.99
2019-06-08T01:44:39.038Z,16.04
2019-06-08T01:47:08.511Z,16.14
2019-06-08T01:49:37.996Z,16.05
2019-06-08T01:52:07.495Z,16.11
2019-06-08T01:54:36.979Z,16.06
2019-06-08T01:57:06.478Z,16.03
2019-06-08T01:59:36.043Z,16.05
2019-06-08T02:02:05.618Z,16.06
2019-06-08T02:04:35.165Z,16.13
2019-06-08T02:07:04.747Z,16.07
2019-06-08T02:09:34.896Z,15.97
2019-06-08T02:12:04.605Z,16.00
2019-06-08T02:14:35.400Z,15.97
2019-06-08T02:17:05.075Z,16.00
2019-06-08T02:19:34.846Z,15.94
2019-06-08T02:22:04.353Z,15.89
2019-06-08T02:24:33.828Z,15.96
2019-06-08T02:27:03.429Z,15.87
2019-06-08T02:29:33.715Z,15.94
2019-06-08T02:32:03.266Z,15.99
2019-06-08T02:34:33.553Z,15.98
2019-06-08T02:37:04.047Z,15.89
2019-06-08T02:39:35.621Z,15.82
2019-06-08T02:42:04.941Z,15.85
2019-06-08T02:44:34.927Z,15.89
2019-06-08T02:47:05.906Z,15.83
2019-06-08T02:49:35.598Z,15.77
2019-06-08T02:52:06.702Z,15.77
2019-06-08T02:54:37.911Z,15.71
2019-06-08T02:57:07.882Z,15.68
2019-06-08T02:59:40.615Z,15.69
2019-06-08T03:02:10.853Z,15.56
2019-06-08T03:04:41.266Z,15.64
2019-06-08T03:07:13.186Z,15.66
2019-06-08T03:09:44.661Z,15.57
2019-06-08T03:12:16.296Z,15.66
2019-06-08T03:14:47.564Z,15.66
2019-06-08T03:17:17.058Z,15.50
2019-06-08T03:19:46.548Z,15.46
2019-06-08T03:22:16.127Z,15.45
2019-06-08T03:24:45.639Z,15.48
2019-06-08T03:27:15.132Z,15.34
2019-06-08T03:29:44.599Z,15.45
2019-06-08T03:32:14.102Z,15.41
2019-06-08T03:34:54.314Z,15.39
2019-06-08T03:37:14.821Z,15.40
2019-06-08T03:39:45.346Z,15.39
2019-06-08T03:42:14.875Z,15.40
2019-06-08T03:44:45.019Z,15.42
2019-06-08T03:47:14.630Z,15.39
2019-06-08T03:49:54.889Z,15.32
2019-06-08T03:52:15.345Z,15.44
2019-06-08T03:54:46.955Z,15.35
2019-06-08T03:57:16.039Z,15.42
2019-06-08T03:59:46.235Z,15.32
2019-06-08T04:02:16.754Z,15.29
2019-06-08T04:04:46.433Z,15.35
2019-06-08T04:07:15.955Z,15.35
2019-06-08T04:09:45.978Z,15.24
2019-06-08T04:12:15.500Z,15.29
2019-06-08T04:14:46.637Z,15.29
2019-06-08T04:17:16.220Z,15.19
2019-06-08T04:20:08.109Z,15.18
2019-06-08T04:22:16.921Z,15.24
2019-06-08T04:24:46.698Z,15.19
2019-06-08T04:27:16.179Z,15.36
2019-06-08T04:29:46.225Z,15.22
2019-06-08T04:32:15.742Z,15.18
2019-06-08T04:34:45.960Z,15.21
2019-06-08T04:37:16.618Z,15.20
2019-06-08T04:39:47.009Z,15.13
2019-06-08T04:42:16.550Z,15.10
2019-06-08T04:44:46.964Z,15.18
2019-06-08T04:47:17.166Z,15.20
2019-06-08T04:49:47.627Z,15.05
2019-06-08T04:52:18.378Z,15.07
2019-06-08T04:54:49.685Z,15.14
2019-06-08T04:57:19.129Z,15.10
2019-06-08T04:59:50.359Z,15.15
2019-06-08T05:02:19.825Z,15.28
2019-06-08T05:04:49.549Z,15.20
2019-06-08T05:07:19.071Z,15.24
2019-06-08T05:09:49.496Z,15.14
2019-06-08T05:12:19.073Z,15.11
2019-06-08T05:14:49.286Z,15.26
2019-06-08T05:17:18.779Z,15.20
2019-06-08T05:19:50.328Z,15.19
2019-06-08T05:22:19.497Z,15.05
2019-06-08T05:24:49.998Z,15.15
2019-06-08T05:27:19.765Z,15.13
2019-06-08T05:29:50.106Z,15.12
2019-06-08T05:32:19.890Z,15.17
2019-06-08T05:34:49.669Z,15.23
2019-06-08T05:37:19.352Z,15.32
2019-06-08T05:39:49.901Z,15.56
2019-06-08T05:42:19.546Z,15.32
2019-06-08T05:44:50.321Z,15.32
2019-06-08T05:47:19.990Z,15.25
2019-06-08T05:49:49.954Z,15.16
2019-06-08T05:52:19.541Z,15.20
2019-06-08T05:54:50.145Z,15.28
2019-06-08T05:57:19.709Z,15.27
2019-06-08T05:59:50.390Z,15.31
2019-06-08T06:02:19.993Z,15.23
2019-06-08T06:04:53.424Z,15.26
2019-06-08T06:07:20.934Z,15.46
2019-06-08T06:09:51.084Z,15.59
2019-06-08T06:12:20.796Z,15.38
2019-06-08T06:14:51.259Z,15.51
2019-06-08T06:17:20.976Z,15.32
2019-06-08T06:19:51.495Z,15.31
2019-06-08T06:22:21.311Z,15.23
2019-06-08T06:24:51.902Z,15.34
2019-06-08T06:27:21.466Z,15.22
2019-06-08T06:29:52.574Z,15.29
2019-06-08T06:32:22.090Z,15.23
2019-06-08T06:34:52.183Z,15.30
2019-06-08T06:37:22.013Z,15.38
2019-06-08T06:39:52.243Z,15.45
2019-06-08T06:42:24.705Z,15.66
2019-06-08T06:44:53.109Z,15.50
2019-06-08T06:47:22.654Z,15.72
2019-06-08T06:49:52.578Z,15.69
2019-06-08T06:52:22.175Z,15.58
2019-06-08T06:54:52.981Z,15.84
2019-06-08T06:57:22.873Z,15.92
2019-06-08T06:59:52.368Z,15.83
2019-06-08T07:02:22.851Z,15.93
2019-06-08T07:04:52.363Z,15.96
2019-06-08T07:07:21.870Z,16.18
2019-06-08T07:09:52.679Z,15.93
2019-06-08T07:12:22.328Z,15.99
2019-06-08T07:14:53.018Z,15.88
2019-06-08T07:17:22.724Z,16.18
2019-06-08T07:19:52.606Z,16.27
2019-06-08T07:22:22.255Z,16.23
2019-06-08T07:24:52.535Z,16.59
2019-06-08T07:27:23.136Z,16.52
2019-06-08T07:29:52.741Z,16.72
2019-06-08T07:32:22.298Z,16.91
2019-06-08T07:34:53.080Z,17.27
2019-06-08T07:37:22.720Z,17.38
2019-06-08T07:39:53.569Z,17.07
2019-06-08T07:42:23.176Z,17.06
2019-06-08T07:44:52.916Z,17.19
2019-06-08T07:47:22.422Z,17.24
2019-06-08T07:49:53.190Z,16.89
2019-06-08T07:52:22.803Z,16.78
2019-06-08T07:54:52.984Z,16.57
2019-06-08T07:57:22.572Z,16.67
2019-06-08T07:59:53.204Z,16.45
2019-06-08T08:02:25.002Z,16.56
2019-06-08T08:04:54.709Z,16.30
2019-06-08T08:07:24.158Z,16.40
2019-06-08T08:09:54.934Z,16.57
2019-06-08T08:12:24.488Z,16.71
2019-06-08T08:14:55.218Z,16.69
2019-06-08T08:17:25.099Z,16.50
2019-06-08T08:19:55.143Z,16.72
2019-06-08T08:22:26.342Z,16.67
2019-06-08T08:25:01.353Z,16.46
2019-06-08T08:27:28.078Z,16.77
2019-06-08T08:29:59.753Z,16.61
2019-06-08T08:32:29.147Z,16.54
2019-06-08T08:35:01.094Z,16.43
2019-06-08T08:37:30.078Z,16.40
2019-06-08T08:40:01.349Z,16.36
2019-06-08T08:42:30.840Z,16.38
2019-06-08T08:45:05.010Z,16.28
2019-06-08T08:47:31.567Z,16.27
2019-06-08T08:50:02.224Z,16.33
2019-06-08T08:52:37.137Z,16.36
2019-06-08T08:55:03.121Z,16.41
2019-06-08T08:57:32.575Z,16.48
2019-06-08T09:00:04.995Z,16.36
2019-06-08T09:02:33.322Z,16.48
2019-06-08T09:05:03.835Z,16.43
2019-06-08T09:07:33.638Z,16.64
2019-06-08T09:10:03.847Z,16.96
2019-06-08T09:12:34.642Z,17.65
2019-06-08T09:15:08.651Z,18.69
2019-06-08T09:17:38.936Z,19.77
2019-06-08T09:20:15.303Z,21.08
2019-06-08T09:22:52.940Z,20.46
2019-06-08T09:25:13.618Z,20.31
2019-06-08T09:27:43.005Z,20.27
2019-06-08T09:30:12.921Z,20.30
2019-06-08T09:32:42.907Z,19.12
2019-06-08T09:35:12.682Z,19.57
2019-06-08T09:37:42.321Z,19.64
2019-06-08T09:40:12.502Z,19.72
2019-06-08T09:42:42.027Z,18.96
2019-06-08T09:45:11.765Z,19.24
2019-06-08T09:47:41.750Z,18.61
2019-06-08T09:50:12.096Z,18.94
2019-06-08T09:52:41.670Z,18.76
2019-06-08T09:55:11.621Z,18.90
2019-06-08T09:57:41.213Z,18.37
2019-06-08T10:00:17.946Z,17.97
2019-06-08T10:02:42.773Z,18.08
2019-06-08T10:05:12.477Z,18.79
2019-06-08T10:07:41.991Z,19.08
2019-06-08T10:10:12.434Z,19.02
2019-06-08T10:12:42.012Z,18.62
2019-06-08T10:15:12.278Z,19.73
2019-06-08T10:17:41.839Z,19.61
2019-06-08T10:20:11.602Z,19.25
2019-06-08T10:22:41.091Z,20.62
2019-06-08T10:25:11.457Z,21.60
2019-06-08T10:27:41.350Z,21.70
2019-06-08T10:30:11.882Z,21.30
2019-06-08T10:32:41.550Z,21.28
2019-06-08T10:35:11.340Z,21.40
2019-06-08T10:37:40.981Z,21.01
2019-06-08T10:40:12.272Z,20.28
2019-06-08T10:42:41.776Z,19.81
2019-06-08T10:45:14.397Z,19.62
2019-06-08T10:47:43.110Z,19.56
2019-06-08T10:50:15.263Z,19.13
2019-06-08T10:52:44.865Z,19.59
2019-06-08T10:55:14.469Z,19.37
2019-06-08T10:57:44.067Z,20.00
2019-06-08T11:00:20.911Z,19.48
2019-06-08T11:02:48.800Z,19.18
2019-06-08T11:05:18.315Z,19.59
2019-06-08T11:07:48.074Z,19.48
2019-06-08T11:10:19.132Z,19.70
2019-06-08T11:12:48.766Z,19.64
2019-06-08T11:15:19.011Z,19.76
2019-06-08T11:17:48.601Z,19.73
2019-06-08T11:20:18.275Z,19.73
2019-06-08T11:22:50.086Z,20.38
2019-06-08T11:25:20.087Z,21.61
2019-06-08T11:27:49.713Z,21.78
2019-06-08T11:30:24.163Z,21.45
2019-06-08T11:32:50.658Z,21.33
2019-06-08T11:35:20.690Z,21.14
2019-06-08T11:37:50.195Z,20.57
2019-06-08T11:40:20.891Z,20.18
2019-06-08T11:42:50.617Z,20.09
2019-06-08T11:45:20.365Z,19.89
2019-06-08T11:47:49.972Z,19.70
2019-06-08T11:50:41.482Z,19.34
2019-06-08T11:53:10.599Z,20.15
2019-06-08T11:55:38.755Z,19.84
2019-06-08T11:58:11.844Z,19.54
2019-06-08T12:01:02.879Z,19.70
2019-06-08T12:03:30.790Z,19.44
2019-06-08T12:06:02.004Z,19.50
2019-06-08T12:08:31.839Z,19.77
2019-06-08T12:11:03.488Z,19.50
2019-06-08T12:13:32.594Z,19.22
2019-06-08T12:16:03.068Z,19.22
2019-06-08T12:18:32.640Z,19.31
2019-06-08T12:21:03.684Z,19.93
2019-06-08T12:23:33.357Z,19.64
2019-06-08T12:26:03.956Z,19.65
2019-06-08T12:28:33.703Z,20.02
2019-06-08T12:31:03.208Z,20.05
2019-06-08T12:33:32.761Z,19.99
2019-06-08T12:36:02.242Z,19.70
2019-06-08T12:38:34.496Z,19.77
2019-06-08T12:41:02.984Z,20.13
2019-06-08T12:43:32.456Z,20.17
2019-06-08T12:46:01.961Z,21.93
2019-06-08T12:48:31.474Z,23.40
2019-06-08T12:51:01.006Z,22.06
2019-06-08T12:53:30.474Z,21.56
2019-06-08T12:56:00.061Z,20.72
2019-06-08T12:58:29.574Z,20.24
2019-06-08T13:00:59.187Z,20.58
2019-06-08T13:03:29.908Z,21.13
2019-06-08T13:05:59.505Z,21.59
2019-06-08T13:08:29.108Z,21.23
2019-06-08T13:11:00.310Z,20.85
2019-06-08T13:13:30.114Z,21.49
2019-06-08T13:15:59.636Z,21.91
2019-06-08T13:18:29.248Z,22.76
2019-06-08T13:21:03.282Z,22.01
2019-06-08T13:23:30.107Z,22.03
2019-06-08T13:25:59.595Z,22.81
2019-06-08T13:28:29.096Z,23.36
2019-06-08T13:30:58.610Z,22.95
2019-06-08T13:33:28.264Z,21.45
2019-06-08T13:35:58.119Z,21.31
2019-06-08T13:38:28.747Z,21.03
2019-06-08T13:40:58.807Z,21.09
2019-06-08T13:43:28.548Z,20.81
2019-06-08T13:45:58.489Z,20.98
2019-06-08T13:48:28.337Z,22.39
2019-06-08T13:50:59.203Z,21.92
2019-06-08T13:53:31.744Z,21.82
2019-06-08T13:56:00.347Z,21.40
2019-06-08T13:58:33.435Z,21.50
2019-06-08T14:01:01.301Z,21.08
2019-06-08T14:03:31.139Z,20.77
2019-06-08T14:06:00.812Z,22.13
2019-06-08T14:08:33.077Z,23.15
2019-06-08T14:11:02.083Z,24.04
2019-06-08T14:13:34.575Z,22.19
2019-06-08T14:16:02.996Z,22.49
2019-06-08T14:18:34.288Z,21.74
2019-06-08T14:21:03.931Z,21.14
2019-06-08T14:23:33.419Z,20.49
2019-06-08T14:26:02.990Z,22.05
2019-06-08T14:28:32.586Z,23.49
2019-06-08T14:31:02.067Z,23.23
2019-06-08T14:33:33.591Z,22.25
2019-06-08T14:36:02.880Z,20.78
2019-06-08T14:38:38.447Z,20.36
2019-06-08T14:41:03.721Z,19.88
2019-06-08T14:43:33.273Z,19.55
2019-06-08T14:46:02.991Z,19.19
2019-06-08T14:48:33.983Z,17.96
2019-06-08T14:51:03.656Z,17.37
2019-06-08T14:53:33.153Z,18.74
2019-06-08T14:56:08.281Z,20.97
2019-06-08T14:58:35.126Z,22.77
2019-06-08T15:01:04.796Z,24.82
2019-06-08T15:03:34.305Z,23.83
2019-06-08T15:06:03.938Z,25.88
2019-06-08T15:08:33.471Z,27.65
2019-06-08T15:11:02.957Z,28.25
2019-06-08T15:13:32.467Z,26.52
2019-06-08T15:16:01.930Z,27.75
2019-06-08T15:18:31.866Z,24.64
2019-06-08T15:21:01.442Z,23.11
2019-06-08T15:23:32.735Z,21.70
2019-06-08T15:26:02.466Z,22.69
2019-06-08T15:28:35.962Z,23.57
2019-06-08T15:31:03.335Z,23.09
2019-06-08T15:33:33.750Z,22.59
2019-06-08T15:36:03.304Z,22.93
2019-06-08T15:38:33.546Z,21.57
2019-06-08T15:41:03.098Z,21.19
2019-06-08T15:43:36.676Z,22.30
2019-06-08T15:46:03.884Z,23.93
2019-06-08T15:48:34.269Z,24.59
2019-06-08T15:51:03.748Z,24.80
2019-06-08T15:53:34.163Z,23.88
2019-06-08T15:56:03.796Z,23.62
2019-06-08T15:58:34.024Z,22.63
2019-06-08T16:01:03.628Z,22.76
2019-06-08T16:03:33.567Z,22.95
2019-06-08T16:06:03.262Z,23.18
2019-06-08T16:08:36.554Z,23.97
2019-06-08T16:11:04.177Z,23.33
2019-06-08T16:13:34.744Z,23.08
2019-06-08T16:16:04.481Z,23.00
2019-06-08T16:18:33.974Z,23.11
2019-06-08T16:21:03.513Z,22.14
2019-06-08T16:23:33.701Z,22.83
2019-06-08T16:26:03.241Z,21.50
2019-06-08T16:28:32.725Z,21.04
2019-06-08T16:31:05.408Z,20.88
2019-06-08T16:33:33.703Z,20.25
2019-06-08T16:36:03.141Z,20.12
2019-06-08T16:38:34.166Z,19.95
2019-06-08T16:41:03.714Z,19.75
2019-06-08T16:43:33.279Z,19.65
2019-06-08T16:46:02.836Z,19.61
2019-06-08T16:48:32.429Z,19.37
2019-06-08T16:51:01.905Z,19.31
2019-06-08T16:53:32.465Z,19.45
2019-06-08T16:56:02.792Z,19.52
2019-06-08T16:58:32.419Z,19.37
2019-06-08T17:01:02.469Z,19.50
2019-06-08T17:03:32.849Z,19.55
2019-06-08T17:06:02.516Z,19.60
2019-06-08T17:08:35.758Z,19.63
2019-06-08T17:11:03.213Z,19.45
2019-06-08T17:13:33.980Z,19.49
2019-06-08T17:16:03.963Z,19.55
2019-06-08T17:18:34.174Z,19.27
2019-06-08T17:21:03.788Z,19.01
2019-06-08T17:23:34.431Z,18.69
2019-06-08T17:26:04.144Z,18.31
2019-06-08T17:28:34.940Z,17.43
2019-06-08T17:31:04.872Z,16.67
2019-06-08T17:33:35.278Z,16.60
2019-06-08T17:36:04.876Z,16.65
2019-06-08T17:38:34.410Z,16.68
2019-06-08T17:41:03.944Z,17.01
2019-06-08T17:43:34.186Z,17.20
2019-06-08T17:46:03.729Z,17.22
2019-06-08T17:48:34.592Z,17.05
2019-06-08T17:51:04.477Z,17.00
2019-06-08T17:53:35.160Z,17.02
2019-06-08T17:56:04.790Z,16.99
2019-06-08T17:58:35.196Z,16.87
2019-06-08T18:01:04.845Z,16.96
2019-06-08T18:03:36.077Z,16.80
2019-06-08T18:06:07.357Z,16.76
2019-06-08T18:08:40.648Z,16.80
2019-06-08T18:11:08.218Z,16.86
2019-06-08T18:13:42.150Z,16.76
2019-06-08T18:16:10.031Z,16.80
2019-06-08T18:18:41.847Z,16.79
2019-06-08T18:21:10.828Z,16.95
2019-06-08T18:23:42.025Z,17.02
2019-06-08T18:26:11.713Z,17.02
2019-06-08T18:28:43.581Z,17.09
2019-06-08T18:31:12.544Z,17.24
2019-06-08T18:33:45.195Z,17.21
2019-06-08T18:36:13.290Z,17.06
2019-06-08T18:38:44.262Z,17.20
2019-06-08T18:41:14.056Z,17.18
2019-06-08T18:43:44.111Z,17.19
2019-06-08T18:46:14.699Z,17.29
2019-06-08T18:48:45.167Z,17.03
2019-06-08T18:51:17.518Z,16.90
2019-06-08T18:54:06.838Z,16.93
2019-06-08T18:56:18.422Z,17.02
2019-06-08T18:58:49.352Z,16.82
2019-06-08T19:01:22.915Z,16.75
2019-06-08T19:03:52.556Z,16.62
2019-06-08T19:06:22.279Z,16.75
2019-06-08T19:08:52.414Z,16.74
2019-06-08T19:11:21.967Z,16.64
2019-06-08T19:13:52.644Z,16.75
2019-06-08T19:16:23.428Z,16.69
2019-06-08T19:18:53.021Z,16.75
2019-06-08T19:21:22.532Z,16.67
2019-06-08T19:23:52.127Z,16.67
2019-06-08T19:26:21.773Z,16.63
2019-06-08T19:28:54.086Z,16.60
2019-06-08T19:31:22.713Z,16.48
2019-06-08T19:33:53.442Z,16.50
2019-06-08T19:36:23.211Z,16.32
2019-06-08T19:38:54.743Z,16.34
2019-06-08T19:41:24.028Z,16.29
2019-06-08T19:43:54.782Z,16.16
2019-06-08T19:46:24.380Z,16.24
2019-06-08T19:48:55.497Z,16.11
2019-06-08T19:51:25.089Z,16.08
2019-06-08T19:53:55.074Z,16.08
2019-06-08T19:56:25.187Z,15.92
2019-06-08T19:59:01.827Z,15.93
2019-06-08T20:01:27.705Z,15.83
2019-06-08T20:03:59.741Z,15.76
2019-06-08T20:06:28.525Z,15.83
2019-06-08T20:08:58.050Z,15.79
2019-06-08T20:11:29.411Z,15.76
2019-06-08T20:13:58.999Z,15.76
2019-06-08T20:16:28.505Z,15.71
2019-06-08T20:18:58.598Z,15.61
2019-06-08T20:21:28.109Z,15.58
2019-06-08T20:23:58.498Z,15.44
2019-06-08T20:26:28.554Z,15.40
2019-06-08T20:29:12.138Z,15.48
2019-06-08T20:31:29.529Z,15.53
2019-06-08T20:33:59.063Z,15.53
2019-06-08T20:36:29.081Z,15.49
2019-06-08T20:38:58.647Z,15.49
2019-06-08T20:41:28.215Z,15.42
2019-06-08T20:43:58.114Z,15.48
2019-06-08T20:46:28.722Z,15.53
2019-06-08T20:48:58.404Z,15.41
2019-06-08T20:51:28.085Z,15.32
2019-06-08T20:53:57.578Z,15.25
2019-06-08T20:56:28.049Z,15.26
2019-06-08T20:58:57.792Z,15.30
2019-06-08T21:01:27.326Z,15.22
2019-06-08T21:03:57.225Z,15.26
2019-06-08T21:06:28.000Z,15.16
2019-06-08T21:08:59.790Z,15.08
2019-06-08T21:11:28.924Z,15.15
2019-06-08T21:13:58.419Z,15.15
2019-06-08T21:16:27.979Z,15.14
2019-06-08T21:18:58.143Z,15.04
2019-06-08T21:21:37.709Z,15.02
2019-06-08T21:24:07.945Z,15.01
2019-06-08T21:26:37.444Z,14.93
2019-06-08T21:29:08.236Z,14.95
2019-06-08T21:31:37.963Z,14.95
2019-06-08T21:34:07.542Z,14.96
2019-06-08T21:36:37.601Z,14.92
2019-06-08T21:39:08.545Z,14.88
2019-06-08T21:41:38.042Z,14.89
2019-06-08T21:44:07.845Z,14.83
2019-06-08T21:46:38.083Z,14.72
2019-06-08T21:49:07.718Z,14.66
2019-06-08T21:51:37.807Z,14.61
2019-06-08T21:54:07.424Z,14.58
2019-06-08T21:56:37.112Z,14.59
2019-06-08T21:59:07.834Z,14.50
2019-06-08T22:01:38.108Z,14.48
2019-06-08T22:04:07.894Z,14.46
2019-06-08T22:06:37.457Z,14.49
2019-06-08T22:09:08.826Z,14.38
2019-06-08T22:11:38.465Z,14.25
2019-06-08T22:14:08.107Z,14.19
2019-06-08T22:16:38.183Z,14.16
2019-06-08T22:19:08.053Z,14.12
2019-06-08T22:21:37.766Z,14.17
2019-06-08T22:24:07.952Z,14.13
2019-06-08T22:26:37.593Z,14.19
2019-06-08T22:29:07.935Z,14.18
2019-06-08T22:31:37.819Z,14.15
2019-06-08T22:34:07.564Z,14.08
2019-06-08T22:36:37.379Z,13.97
2019-06-08T22:39:08.276Z,14.01
2019-06-08T22:41:38.100Z,14.02
2019-06-08T22:44:08.341Z,14.00
2019-06-08T22:46:38.073Z,13.86
2019-06-08T22:49:08.116Z,13.83
2019-06-08T22:51:38.415Z,13.84
2019-06-08T22:54:08.192Z,13.89
2019-06-08T22:56:37.660Z,13.86
2019-06-08T22:59:09.201Z,13.88
2019-06-08T23:01:38.576Z,13.76
2019-06-08T23:04:08.922Z,13.69
2019-06-08T23:06:38.861Z,13.73
2019-06-08T23:09:08.994Z,13.61
2019-06-08T23:11:38.612Z,13.58
2019-06-08T23:14:13.018Z,13.60
2019-06-08T23:16:39.415Z,13.56
2019-06-08T23:19:09.051Z,13.47
2019-06-08T23:21:38.575Z,13.45
2019-06-08T23:24:08.635Z,13.33
2019-06-08T23:26:38.136Z,13.28
2019-06-08T23:29:09.562Z,13.16
2019-06-08T23:31:38.958Z,12.98
2019-06-08T23:34:11.093Z,12.98
2019-06-08T23:36:52.026Z,13.00
2019-06-08T23:39:10.945Z,12.89
2019-06-08T23:41:40.469Z,12.98
2019-06-08T23:44:09.987Z,12.94
2019-06-08T23:46:39.494Z,12.97
2019-06-08T23:49:09.142Z,12.91
2019-06-08T23:51:38.712Z,12.96
2019-06-08T23:54:12.059Z,12.90
2019-06-08T23:56:39.413Z,12.73
2019-06-08T23:59:09.431Z,12.84
